ソチ の空港の天気 - METARとTAF

ソチ空港 ( URSS / AER ) - ロシア ソチ
飛行場実況気象(Metar)
観測時間01/23 08:30 MSK (01/23 05:30 UTC)
風向・風速東北東 5m/s
視程10km以上
天気現象
全天の4割程度の雲 雲底高度 1830m
全天を覆う雲 雲底高度 2230m
気温11℃
湿度50%
気圧1005hPa
METARURSS 230530Z 06005MPS 9999 SCT060CB OVC073 11/01 Q1005 WS ALL RWY R06/090070 R02/////// NOSIG RMK R02/04004MPS QFE753
過去の天気等 Google飛行場航空写真 Wunderground天気予報

過去48時間のMETAR

飛行場予報(TAF)
発表時間: 1/23 07:57 MSK (1/23 04:57 UTC)
予報対象時間: 23日9時 MSK ~ 24日9時 MSK
風向・風速北東 7m/s 瞬間風速 12m/s
視程10km以上
全天の4割程度の積乱雲 雲底高度 910m
全天を覆う雲 雲底高度 3,050m
23日9時 MSK ~ 23日15時 MSK に一時的に
風向・風速南東 7m/s 瞬間風速 12m/s
視程5,000m
天気現象弱い雷雨
23日15時 MSK ~ 23日18時 MSK に一時的に
風向・風速不定 8m/s 瞬間風速 13m/s
視程2,100m
天気現象弱い雷雨
全天の8割程度の雲 雲底高度 180m
全天の8割程度の積乱雲 雲底高度 610m
全天を覆う雲 雲底高度 3,050m
23日18時 MSK ~ 23日19時 MSK に徐々に
風向・風速北東 7m/s
23日18時 MSK ~ 24日9時 MSK に一時的に
風向・風速不定 7m/s 瞬間風速 12m/s
視程2,100m
天気現象弱い雷雨
全天の8割程度の雲 雲底高度 180m
全天の8割程度の積乱雲 雲底高度 610m
全天を覆う雲 雲底高度 3,050m
TAF URSS 230457Z 2306/2406 05007G12MPS 9999 SCT030CB OVC100
TEMPO 2306/2312 13007G12MPS 5000 -TSRA
TEMPO 2312/2315 VRB08G13MPS 2100 -TSRA BKN006 BKN020CB OVC100
BECMG 2315/2316 05007MPS
TEMPO 2315/2406 VRB07G12MPS 2100 -TSRA BKN006 BKN020CB OVC100